Time;durP1;ratioP1;P1;durP2;ratioP2;P2;SDS_P1;SDS_P2;PMS_P1;PMS_P2;Temp;Humidity;BMP_temperature;BMP_pressure;BME280_temperature;BME280_humidity;BME280_pressure;Samples;Min_cycle;Max_cycle;Signal;HPM_P1;HPM_P2
2021/06/16 00:01:04;;;;;;;13.60;9.38;;;;;;;17.22;100.00;100558.17;1742256;82;21007;-79
2021/06/16 00:03:31;;;;;;;13.13;9.13;;;;;;;17.24;100.00;100558.84;1741833;82;21052;-78
2021/06/16 00:05:58;;;;;;;11.30;10.08;;;;;;;17.24;100.00;100554.43;1742262;82;21109;-72
2021/06/16 00:08:25;;;;;;;13.88;9.65;;;;;;;17.25;100.00;100550.84;1742073;82;20912;-78
2021/06/16 00:10:52;;;;;;;14.28;9.98;;;;;;;17.25;100.00;100550.84;1742023;82;21119;-75
2021/06/16 00:13:21;;;;;;;18.73;10.18;;;;;;;17.26;100.00;100554.30;1742304;82;21002;-79
2021/06/16 00:15:50;;;;;;;14.98;9.90;;;;;;;17.27;100.00;100553.30;1742424;82;20948;-78
2021/06/16 00:18:17;;;;;;;14.87;9.73;;;;;;;17.28;100.00;100554.97;1742240;82;22001;-75
2021/06/16 00:20:46;;;;;;;12.73;9.73;;;;;;;17.29;100.00;100552.69;1742237;82;20963;-79
2021/06/16 00:23:13;;;;;;;18.02;10.32;;;;;;;17.29;100.00;100560.56;1742282;82;21439;-81
2021/06/16 00:25:39;;;;;;;12.33;9.38;;;;;;;17.29;100.00;100560.05;1742323;82;21015;-77
2021/06/16 00:28:06;;;;;;;16.62;9.90;;;;;;;17.31;100.00;100562.06;1742221;82;21588;-79
2021/06/16 00:30:34;;;;;;;19.23;10.23;;;;;;;17.32;100.00;100558.95;1742261;82;21769;-79
2021/06/16 00:33:00;;;;;;;15.45;9.43;;;;;;;17.34;100.00;100558.31;1742173;82;21043;-74
2021/06/16 00:35:30;;;;;;;16.77;10.43;;;;;;;17.35;100.00;100554.72;1742313;82;20999;-82
2021/06/16 00:37:58;;;;;;;12.78;10.40;;;;;;;17.35;100.00;100566.05;1742260;82;21061;-73
2021/06/16 00:40:27;;;;;;;19.40;9.30;;;;;;;17.35;100.00;100566.05;1742307;82;21342;-76
2021/06/16 00:42:57;;;;;;;16.02;10.48;;;;;;;17.35;100.00;100566.05;1742497;82;21113;-73
2021/06/16 00:45:24;;;;;;;16.77;9.50;;;;;;;17.36;100.00;100571.61;1742089;82;20936;-72
2021/06/16 00:47:55;;;;;;;16.32;9.90;;;;;;;17.38;100.00;100570.17;1742329;82;20912;-75
2021/06/16 00:50:28;;;;;;;13.60;10.00;;;;;;;17.37;100.00;100566.72;1742127;81;21000;-73
2021/06/16 00:52:55;;;;;;;14.15;9.88;;;;;;;17.35;100.00;100569.98;1756096;81;20963;-78
2021/06/16 00:55:22;;;;;;;15.53;9.68;;;;;;;17.34;100.00;100566.17;1763586;81;21129;-78
2021/06/16 00:57:50;;;;;;;17.65;9.60;;;;;;;17.34;100.00;100569.63;1763615;81;20903;-77
2021/06/16 01:00:20;;;;;;;14.90;9.20;;;;;;;17.34;100.00;100569.63;1756711;81;21552;-75
2021/06/16 01:02:58;;;;;;;13.50;9.93;;;;;;;17.35;100.00;100573.92;1763782;81;20994;-79
2021/06/16 01:05:30;;;;;;;12.98;9.30;;;;;;;17.35;100.00;100567.36;1763644;81;21045;-77
2021/06/16 01:08:01;;;;;;;14.93;9.03;;;;;;;17.35;100.00;100575.23;1764076;81;21123;-77
2021/06/16 01:10:30;;;;;;;15.37;9.17;;;;;;;17.35;100.00;100580.47;1763763;81;21207;-80
2021/06/16 01:13:05;;;;;;;13.83;9.23;;;;;;;17.37;100.00;100585.08;1763646;81;20888;-78
2021/06/16 01:15:57;;;;;;;14.93;8.78;;;;;;;17.39;100.00;100585.74;1763607;81;21508;-77
2021/06/16 01:18:25;;;;;;;22.70;9.25;;;;;;;17.40;100.00;100590.51;1745751;81;21061;-73
2021/06/16 01:20:55;;;;;;;15.50;8.93;;;;;;;17.38;100.00;100598.55;1763496;81;21176;-72
2021/06/16 01:23:39;;;;;;;13.00;8.93;;;;;;;17.38;100.00;100599.02;1763611;81;20962;-82
2021/06/16 01:26:23;;;;;;;21.37;9.78;;;;;;;17.39;100.00;100606.73;1763693;81;21007;-78
2021/06/16 01:28:52;;;;;;;20.88;9.68;;;;;;;17.40;100.00;100607.08;1733347;81;20899;-79
2021/06/16 01:31:19;;;;;;;16.23;8.88;;;;;;;17.41;100.00;100609.22;1763755;81;21009;-81
2021/06/16 01:33:47;;;;;;;12.50;8.85;;;;;;;17.41;100.00;100606.12;1764238;81;21158;-75
2021/06/16 01:36:16;;;;;;;11.40;9.45;;;;;;;17.40;100.00;100601.83;1764597;81;21075;-76
2021/06/16 01:38:44;;;;;;;18.25;10.32;;;;;;;17.41;100.00;100606.59;1764852;81;21541;-77
2021/06/16 01:41:12;;;;;;;15.58;8.85;;;;;;;17.37;100.00;100602.13;1765862;81;20935;-77
2021/06/16 01:43:39;;;;;;;13.35;9.43;;;;;;;17.38;100.00;100601.64;1757274;81;21038;-77
2021/06/16 01:46:06;;;;;;;14.55;9.18;;;;;;;17.39;100.00;100605.90;1763546;81;21177;-79
2021/06/16 01:48:33;;;;;;;12.75;9.43;;;;;;;17.41;100.00;100609.22;1763594;81;21000;-77
2021/06/16 01:51:00;;;;;;;13.50;8.98;;;;;;;17.40;100.00;100612.33;1763408;81;20943;-80
2021/06/16 01:53:27;;;;;;;12.35;9.13;;;;;;;17.41;100.00;100611.84;1749614;81;21593;-76
2021/06/16 01:55:54;;;;;;;13.55;9.25;;;;;;;17.40;100.00;100609.70;1744960;82;21478;-81
2021/06/16 01:58:23;;;;;;;12.53;9.33;;;;;;;17.40;100.00;100611.50;1744690;82;20852;-76
2021/06/16 02:00:51;;;;;;;11.48;8.95;;;;;;;17.38;100.00;100606.41;1744796;82;21030;-79
2021/06/16 02:03:18;;;;;;;13.40;9.18;;;;;;;17.37;100.00;100606.06;1744971;82;21050;-76
2021/06/16 02:05:46;;;;;;;15.32;8.68;;;;;;;17.35;100.00;100611.13;1746260;81;21019;-76
2021/06/16 02:08:22;;;;;;;17.67;9.40;;;;;;;17.32;100.00;100614.87;1744872;82;21475;-78
2021/06/16 02:10:51;;;;;;;11.28;9.28;;;;;;;17.31;100.00;100615.00;1744853;82;21205;-79
2021/06/16 02:13:29;;;;;;;12.93;9.28;;;;;;;17.33;100.00;100622.22;1744678;82;20978;-75
2021/06/16 02:16:07;;;;;;;11.53;9.48;;;;;;;17.33;100.00;100620.91;1744470;82;21071;-74
2021/06/16 02:18:56;;;;;;;12.78;8.60;;;;;;;17.32;100.00;100613.55;1744057;82;21014;-77
2021/06/16 02:21:23;;;;;;;14.07;8.55;;;;;;;17.31;100.00;100618.45;1744955;82;21515;-77
2021/06/16 02:23:49;;;;;;;13.55;8.60;;;;;;;17.30;100.00;100625.14;1744829;82;21146;-77
2021/06/16 02:26:17;;;;;;;11.35;8.28;;;;;;;17.29;100.00;100629.55;1744829;82;20991;-77
2021/06/16 02:28:44;;;;;;;11.90;8.50;;;;;;;17.31;100.00;100626.80;1744671;82;20998;-78
2021/06/16 02:31:12;;;;;;;16.42;8.68;;;;;;;17.32;100.00;100635.85;1744859;82;20956;-79
2021/06/16 02:33:39;;;;;;;12.88;8.73;;;;;;;17.34;100.00;100631.75;1744867;82;21007;-80
2021/06/16 02:36:08;;;;;;;11.12;9.10;;;;;;;17.36;100.00;100637.67;1744828;82;21121;-80
2021/06/16 02:38:36;;;;;;;16.77;8.65;;;;;;;17.36;100.00;100635.05;1744765;82;21122;-79
2021/06/16 02:41:06;;;;;;;17.23;9.03;;;;;;;17.37;100.00;100640.64;1744974;82;21454;-79
2021/06/16 02:43:34;;;;;;;14.28;9.60;;;;;;;17.38;100.00;100644.45;1744999;82;20944;-79
2021/06/16 02:46:01;;;;;;;14.70;8.43;;;;;;;17.41;100.00;100644.64;1745044;82;20880;-79
2021/06/16 02:48:29;;;;;;;12.45;8.95;;;;;;;17.43;100.00;100653.17;1744724;82;21112;-78
2021/06/16 02:50:56;;;;;;;16.50;9.25;;;;;;;17.45;100.00;100649.94;1744654;82;21018;-76
2021/06/16 02:53:25;;;;;;;23.12;11.15;;;;;;;17.44;100.00;100656.15;1743043;82;21042;-78
2021/06/16 02:56:00;;;;;;;17.37;9.73;;;;;;;17.44;100.00;100656.15;1742043;82;20872;-77
2021/06/16 02:58:27;;;;;;;12.93;9.95;;;;;;;17.44;100.00;100660.92;1742201;82;20991;-74
2021/06/16 03:00:58;;;;;;;10.00;8.83;;;;;;;17.45;100.00;100658.61;1742220;82;21109;-76
2021/06/16 03:03:25;;;;;;;20.20;9.95;;;;;;;17.48;100.00;100666.70;1742276;82;21028;-75
2021/06/16 03:05:52;;;;;;;12.45;9.38;;;;;;;17.51;100.00;100666.89;1742031;82;21062;-76
2021/06/16 03:08:21;;;;;;;20.72;10.05;;;;;;;17.54;100.00;100667.43;1735145;82;21023;-78
2021/06/16 03:10:48;;;;;;;17.12;9.50;;;;;;;17.56;100.00;100664.67;1742143;81;20971;-77
2021/06/16 03:13:16;;;;;;;14.70;9.55;;;;;;;17.57;100.00;100671.11;1742211;82;21078;-78
2021/06/16 03:15:47;;;;;;;11.48;8.83;;;;;;;17.60;100.00;100677.37;1741934;81;21039;-76
2021/06/16 03:18:17;;;;;;;18.90;9.23;;;;;;;17.62;100.00;100672.80;1742173;82;20931;-77
2021/06/16 03:20:44;;;;;;;22.13;9.50;;;;;;;17.66;100.00;100682.03;1742223;81;21463;-77
2021/06/16 03:23:12;;;;;;;19.75;11.73;;;;;;;17.68;100.00;100679.25;1742215;82;21057;-77
2021/06/16 03:25:39;;;;;;;16.37;9.38;;;;;;;17.70;100.00;100676.02;1742279;82;21537;-76
2021/06/16 03:28:08;;;;;;;11.95;8.38;;;;;;;17.71;100.00;100677.67;1742231;82;21038;-78
2021/06/16 03:30:35;;;;;;;15.38;8.95;;;;;;;17.73;100.00;100679.66;1741956;82;20960;-78
2021/06/16 03:33:02;;;;;;;12.73;8.53;;;;;;;17.75;100.00;100679.84;1742500;82;20987;-78
2021/06/16 03:35:29;;;;;;;13.28;9.23;;;;;;;17.79;100.00;100681.69;1742464;81;20980;-78
2021/06/16 03:37:56;;;;;;;14.95;8.93;;;;;;;17.82;100.00;100682.70;1742789;82;21064;-78
2021/06/16 03:40:27;;;;;;;10.85;9.08;;;;;;;17.86;100.00;100683.59;1742079;82;20893;-76
2021/06/16 03:42:56;;;;;;;14.15;9.08;;;;;;;17.89;100.00;100690.34;1742216;82;21491;-74
2021/06/16 03:45:23;;;;;;;12.55;8.48;;;;;;;17.92;100.00;100684.80;1742058;81;20888;-78
2021/06/16 03:47:54;;;;;;;13.43;8.60;;;;;;;17.96;100.00;100688.78;1711301;82;20900;-78
2021/06/16 03:50:21;;;;;;;14.90;8.73;;;;;;;18.02;100.00;100691.30;1711350;82;21178;-79
2021/06/16 03:52:48;;;;;;;17.17;8.75;;;;;;;18.08;100.00;100695.95;1746973;81;20947;-78
2021/06/16 03:55:17;;;;;;;12.68;8.90;;;;;;;18.15;100.00;100695.70;1763312;81;21042;-77
2021/06/16 03:57:44;;;;;;;13.90;8.73;;;;;;;18.21;100.00;100705.61;1763487;81;21466;-77
2021/06/16 04:00:14;;;;;;;18.32;10.88;;;;;;;18.22;100.00;100703.34;1763557;81;20851;-77
2021/06/16 04:02:42;;;;;;;16.45;7.90;;;;;;;18.23;100.00;100700.55;1763380;81;21128;-77
2021/06/16 04:05:09;;;;;;;15.55;8.05;;;;;;;18.23;100.00;100705.80;1763522;81;20999;-77
2021/06/16 04:07:36;;;;;;;15.75;7.85;;;;;;;18.24;100.00;100698.27;1763564;81;21015;-75
2021/06/16 04:10:05;;;;;;;10.58;6.70;;;;;;;18.25;100.00;100700.41;1763597;81;20997;-74
2021/06/16 04:12:32;;;;;;;10.23;6.62;;;;;;;18.27;100.00;100699.28;1763507;81;20995;-76
2021/06/16 04:14:59;;;;;;;10.90;6.12;;;;;;;18.27;100.00;100701.07;1763456;81;21114;-76
2021/06/16 04:17:26;;;;;;;10.65;6.53;;;;;;;18.28;100.00;100704.84;1763312;81;20975;-75
2021/06/16 04:19:54;;;;;;;12.85;6.72;;;;;;;18.31;100.00;100705.89;1763658;81;21458;-74
2021/06/16 04:22:21;;;;;;;10.03;6.22;;;;;;;18.36;100.00;100705.42;1763198;81;21001;-76
2021/06/16 04:24:48;;;;;;;22.73;7.40;;;;;;;18.41;100.00;100701.87;1763374;81;21003;-75
2021/06/16 04:27:16;;;;;;;13.43;5.75;;;;;;;18.46;100.00;100704.38;1763397;81;21192;-75
2021/06/16 04:29:43;;;;;;;9.90;5.22;;;;;;;18.53;100.00;100701.18;1763512;81;21011;-74
2021/06/16 04:32:10;;;;;;;12.93;5.53;;;;;;;18.58;100.00;100697.11;1763511;81;21037;-74
2021/06/16 04:34:37;;;;;;;12.35;5.83;;;;;;;18.61;100.00;100698.13;1763465;81;20998;-73
2021/06/16 04:37:06;;;;;;;12.20;6.00;;;;;;;18.64;100.00;100695.67;1763503;81;21526;-74
2021/06/16 04:39:34;;;;;;;11.75;5.60;;;;;;;18.63;100.00;100700.62;1763387;81;21879;-74
2021/06/16 04:42:01;;;;;;;12.25;5.72;;;;;;;18.60;100.00;100707.49;1763560;81;20944;-71
2021/06/16 04:44:28;;;;;;;6.92;4.33;;;;;;;18.54;100.00;100710.73;1763288;81;21005;-72
2021/06/16 04:46:56;;;;;;;10.55;3.92;;;;;;;18.44;100.00;100710.26;1763449;81;20943;-75
2021/06/16 04:49:23;;;;;;;7.15;4.03;;;;;;;18.38;100.00;100706.09;1763396;81;20931;-76
2021/06/16 04:51:50;;;;;;;4.30;3.22;;;;;;;18.37;100.00;100714.97;1763607;81;21104;-76
2021/06/16 04:54:17;;;;;;;8.63;2.98;;;;;;;18.38;100.00;100720.06;1749647;81;21027;-76
2021/06/16 04:56:44;;;;;;;6.97;3.27;;;;;;;18.40;100.00;100718.13;1744770;82;21019;-75
2021/06/16 04:59:11;;;;;;;7.12;3.17;;;;;;;18.40;100.00;100727.32;1744662;82;20944;-74
2021/06/16 05:01:38;;;;;;;14.00;4.17;;;;;;;18.38;100.00;100733.68;1744686;82;21522;-76
2021/06/16 05:04:05;;;;;;;5.83;3.08;;;;;;;18.35;100.00;100723.47;1744781;82;21993;-76
2021/06/16 05:06:33;;;;;;;5.10;2.72;;;;;;;18.36;100.00;100729.07;1744808;82;20931;-76
2021/06/16 05:09:01;;;;;;;4.95;2.80;;;;;;;18.40;100.00;100736.52;1744946;82;20976;-75
2021/06/16 05:11:28;;;;;;;6.35;2.50;;;;;;;18.44;100.00;100735.22;1744969;82;20908;-76
2021/06/16 05:13:55;;;;;;;5.58;2.25;;;;;;;18.46;100.00;100742.48;1746431;81;21001;-76
2021/06/16 05:16:22;;;;;;;5.15;2.02;;;;;;;18.46;100.00;100742.48;1744898;82;21110;-78
2021/06/16 05:18:51;;;;;;;5.90;1.50;;;;;;;18.49;100.00;100744.84;1744784;82;20979;-71
2021/06/16 05:21:18;;;;;;;3.83;1.70;;;;;;;18.44;100.00;100744.42;1744704;82;20904;-75
2021/06/16 05:23:45;;;;;;;5.35;1.95;;;;;;;18.40;100.00;100746.20;1744972;82;20984;-73
2021/06/16 05:26:12;;;;;;;5.67;1.32;;;;;;;18.35;100.00;100753.20;1721740;81;20948;-72
2021/06/16 05:28:39;;;;;;;8.08;1.52;;;;;;;18.34;100.00;100754.68;1744804;82;21104;-76
2021/06/16 05:31:09;;;;;;;2.20;1.20;;;;;;;18.33;100.00;100754.33;1744825;82;21067;-75
2021/06/16 05:33:39;;;;;;;6.22;1.50;;;;;;;18.33;100.00;100752.53;1744892;82;20983;-73
2021/06/16 05:36:07;;;;;;;7.78;2.00;;;;;;;18.36;100.00;100754.03;1744942;82;21014;-74
2021/06/16 05:38:36;;;;;;;4.05;1.70;;;;;;;18.39;100.00;100754.56;1744761;82;21787;-73
2021/06/16 05:41:04;;;;;;;6.83;1.70;;;;;;;18.42;100.00;100757.38;1744743;82;21298;-74
2021/06/16 05:43:32;;;;;;;6.12;2.10;;;;;;;18.45;100.00;100750.51;1744692;82;21541;-75
2021/06/16 05:45:59;;;;;;;7.15;2.27;;;;;;;18.47;100.00;100753.83;1744745;82;21506;-74
2021/06/16 05:48:26;;;;;;;5.12;1.95;;;;;;;18.52;100.00;100757.34;1744850;82;21511;-75
2021/06/16 05:50:53;;;;;;;6.92;1.85;;;;;;;18.56;100.00;100757.38;1744925;82;21704;-75
2021/06/16 05:53:20;;;;;;;5.30;1.77;;;;;;;18.57;100.00;100759.05;1742233;82;21514;-74
2021/06/16 05:55:47;;;;;;;6.00;2.10;;;;;;;18.57;100.00;100760.36;1731942;82;21197;-73
2021/06/16 05:58:14;;;;;;;7.70;2.80;;;;;;;18.55;100.00;100755.72;1731838;82;21025;-74
2021/06/16 06:00:41;;;;;;;4.75;1.77;;;;;;;18.50;100.00;100758.81;1719879;82;20960;-75
2021/06/16 06:03:08;;;;;;;6.90;1.67;;;;;;;18.50;100.00;100762.76;1709172;82;21019;-74
2021/06/16 06:05:35;;;;;;;3.60;1.45;;;;;;;18.47;100.00;100768.28;1709835;83;21197;-73
2021/06/16 06:08:02;;;;;;;5.17;1.70;;;;;;;18.41;100.00;100767.05;1688974;83;21030;-72
2021/06/16 06:10:29;;;;;;;4.60;1.80;;;;;;;18.36;100.00;100770.62;1696366;83;21683;-74
2021/06/16 06:12:56;;;;;;;5.25;1.90;;;;;;;18.32;100.00;100769.27;1708460;83;21526;-72
2021/06/16 06:15:24;;;;;;;2.15;1.30;;;;;;;18.30;100.00;100769.91;1709156;83;21098;-70
2021/06/16 06:17:52;;;;;;;6.10;1.65;;;;;;;18.23;100.00;100779.83;1701271;82;21509;-74
2021/06/16 06:20:19;;;;;;;6.72;1.80;;;;;;;18.16;100.00;100780.91;1701232;84;21542;-74
2021/06/16 06:22:46;;;;;;;3.15;1.40;;;;;;;18.12;100.00;100781.36;1710204;82;21117;-72
2021/06/16 06:25:13;;;;;;;11.70;2.75;;;;;;;18.07;100.00;100787.52;1736194;82;21059;-69
2021/06/16 06:27:40;;;;;;;10.08;2.45;;;;;;;17.98;100.00;100785.30;1712076;81;21000;-73
2021/06/16 06:30:17;;;;;;;9.35;1.82;;;;;;;17.84;100.00;100789.22;1721251;82;21123;-73
2021/06/16 06:32:45;;;;;;;6.85;1.95;;;;;;;17.65;100.00;100791.91;1701355;84;21159;-74
2021/06/16 06:35:12;;;;;;;6.15;1.70;;;;;;;17.52;100.00;100793.19;1701459;84;21585;-74
2021/06/16 06:37:40;;;;;;;5.12;2.27;;;;;;;17.42;100.00;100792.70;1708434;83;21048;-76
2021/06/16 06:40:08;;;;;;;6.17;1.72;;;;;;;17.34;100.00;100789.97;1709592;83;21083;-74
2021/06/16 06:42:36;;;;;;;6.30;3.22;;;;;;;17.32;100.00;100793.71;1701762;83;21323;-73
2021/06/16 06:45:09;;;;;;;5.25;2.20;;;;;;;17.34;100.00;100805.71;1701542;84;20940;-73
2021/06/16 06:47:36;;;;;;;2.52;1.15;;;;;;;17.39;100.00;100800.02;1701821;84;21030;-72
2021/06/16 06:50:13;;;;;;;2.90;1.95;;;;;;;17.35;100.00;100809.17;1726984;82;21047;-72
2021/06/16 06:52:36;;;;;;;4.17;1.72;;;;;;;17.23;100.00;100808.48;1718521;81;21122;-74
2021/06/16 06:55:03;;;;;;;7.55;1.90;;;;;;;17.19;100.00;100814.16;1711038;83;21602;-74
2021/06/16 06:57:30;;;;;;;7.17;2.25;;;;;;;17.16;100.00;100816.58;1711874;83;21002;-72
2021/06/16 06:59:57;;;;;;;3.80;1.90;;;;;;;17.14;100.00;100815.05;1710950;83;21638;-72
2021/06/16 07:02:25;;;;;;;2.85;1.42;;;;;;;17.13;100.00;100809.48;1711758;83;21087;-71
2021/06/16 07:04:53;;;;;;;3.98;1.77;;;;;;;17.11;100.00;100819.26;1712997;82;20987;-72
2021/06/16 07:07:20;;;;;;;3.70;1.85;;;;;;;17.10;100.00;100818.94;1714758;83;21031;-73
2021/06/16 07:09:48;;;;;;;2.72;1.70;;;;;;;17.07;100.00;100817.39;1715078;82;20955;-73
2021/06/16 07:12:15;;;;;;;3.05;1.75;;;;;;;17.04;100.00;100818.18;1714253;83;21047;-73
2021/06/16 07:14:42;;;;;;;3.60;1.50;;;;;;;17.10;100.00;100822.39;1714283;82;21057;-71
2021/06/16 07:17:09;;;;;;;3.50;1.40;;;;;;;17.14;100.00;100824.22;1714470;83;20979;-73
2021/06/16 07:19:36;;;;;;;4.05;2.70;;;;;;;17.17;100.00;100823.46;1711994;83;22251;-72
2021/06/16 07:22:04;;;;;;;3.00;2.62;;;;;;;17.23;100.00;100826.84;1711011;83;21668;-71
2021/06/16 07:24:31;;;;;;;6.65;4.47;;;;;;;17.28;100.00;100825.12;1711251;83;20974;-72
2021/06/16 07:26:59;;;;;;;9.70;4.97;;;;;;;17.30;100.00;100824.00;1711156;82;21063;-73
2021/06/16 07:29:26;;;;;;;4.90;3.33;;;;;;;17.36;100.00;100817.36;1711178;83;21073;-73
2021/06/16 07:31:53;;;;;;;5.58;2.00;;;;;;;17.41;100.00;100833.52;1711174;83;21747;-74
2021/06/16 07:34:21;;;;;;;2.98;2.12;;;;;;;17.44;100.00;100827.52;1710942;83;21473;-76
2021/06/16 07:36:49;;;;;;;3.10;1.70;;;;;;;17.52;100.00;100835.17;1711931;83;21122;-75
2021/06/16 07:39:16;;;;;;;4.17;2.00;;;;;;;17.53;100.00;100838.95;1711595;83;21074;-75
2021/06/16 07:41:44;;;;;;;2.95;1.75;;;;;;;17.56;100.00;100837.86;1712097;83;21101;-77
2021/06/16 07:44:11;;;;;;;3.55;2.42;;;;;;;17.58;100.00;100841.20;1712189;83;21544;-77
2021/06/16 07:46:39;;;;;;;2.80;1.80;;;;;;;17.60;100.00;100837.45;1711257;83;21034;-74
2021/06/16 07:49:07;;;;;;;5.10;2.58;;;;;;;17.63;100.00;100845.52;1711188;83;21035;-75
2021/06/16 07:51:35;;;;;;;3.80;3.20;;;;;;;17.67;100.00;100845.11;1711068;83;20948;-77
2021/06/16 07:54:04;;;;;;;4.00;2.22;;;;;;;17.77;100.00;100847.20;1724636;81;21158;-79
2021/06/16 07:56:30;;;;;;;3.20;1.87;;;;;;;17.91;100.00;100849.85;1744173;82;21133;-79
2021/06/16 07:58:57;;;;;;;3.33;2.42;;;;;;;18.09;100.00;100844.20;1745119;82;20999;-79
2021/06/16 08:01:25;;;;;;;4.62;3.83;;;;;;;18.29;100.00;100847.06;1745151;82;21003;-77
2021/06/16 08:03:52;;;;;;;2.58;2.37;;;;;;;18.39;100.00;100843.91;1744446;82;21114;-80
2021/06/16 08:06:22;;;;;;;4.47;2.33;;;;;;;18.41;100.00;100848.52;1743934;82;21085;-81
2021/06/16 08:08:49;;;;;;;4.67;2.15;;;;;;;18.36;100.00;100852.08;1745046;82;21093;-76
2021/06/16 08:11:17;;;;;;;4.25;3.12;;;;;;;18.33;100.00;100860.26;1743937;82;21099;-81
2021/06/16 08:13:44;;;;;;;3.40;2.55;;;;;;;18.31;100.00;100859.59;1743735;82;21070;-81
2021/06/16 08:16:11;;;;;;;3.27;2.27;;;;;;;18.24;100.00;100860.30;1744112;82;21054;-82
2021/06/16 08:18:41;;;;;;;3.90;2.12;;;;;;;18.20;100.00;100861.08;1743144;80;21012;-85
2021/06/16 08:21:09;;;;;;;3.22;2.27;;;;;;;18.25;100.00;100858.83;1756391;80;21113;-82
2021/06/16 08:23:37;;;;;;;2.80;2.52;;;;;;;18.35;100.00;100861.41;1781499;78;21046;-80
2021/06/16 08:26:04;;;;;;;4.75;2.62;;;;;;;18.43;100.00;100856.27;1783690;80;21022;-79
2021/06/16 08:28:32;;;;;;;3.27;2.50;;;;;;;18.57;100.00;100857.61;1783264;80;21600;-81
2021/06/16 08:30:59;;;;;;;4.37;2.80;;;;;;;18.72;100.00;100860.06;1708994;83;21475;-81
2021/06/16 08:33:26;;;;;;;5.10;3.37;;;;;;;18.82;100.00;100861.66;1729744;82;21116;-75
2021/06/16 08:35:54;;;;;;;5.85;3.42;;;;;;;18.91;100.00;100865.19;1708297;84;21038;-77
2021/06/16 08:38:23;;;;;;;4.08;3.10;;;;;;;18.92;100.00;100868.16;1729579;82;21660;-74
2021/06/16 08:40:53;;;;;;;4.28;3.37;;;;;;;18.94;100.00;100861.77;1729580;82;21079;-74
2021/06/16 08:43:21;;;;;;;4.33;3.35;;;;;;;18.98;100.00;100870.19;1709170;84;21042;-71
2021/06/16 08:45:49;;;;;;;4.97;4.12;;;;;;;19.02;100.00;100866.27;1729792;82;21140;-76
2021/06/16 08:48:16;;;;;;;5.28;3.87;;;;;;;19.00;100.00;100862.97;1707283;83;21574;-77
2021/06/16 08:50:44;;;;;;;4.12;3.37;;;;;;;19.07;100.00;100865.34;1729332;83;21613;-76
2021/06/16 08:53:11;;;;;;;6.20;4.70;;;;;;;19.20;100.00;100868.91;1708001;84;21019;-79
2021/06/16 08:55:38;;;;;;;4.78;3.95;;;;;;;19.30;100.00;100870.97;1728955;82;21549;-76
2021/06/16 08:58:08;;;;;;;6.58;4.35;;;;;;;19.35;100.00;100873.47;1729470;82;21101;-76
2021/06/16 09:00:38;;;;;;;7.28;4.17;;;;;;;19.34;100.00;100878.39;1729843;83;21633;-77
2021/06/16 09:03:05;;;;;;;6.00;3.77;;;;;;;19.31;100.00;100882.64;1708328;84;21091;-76
2021/06/16 09:05:37;;;;;;;6.90;3.72;;;;;;;19.31;100.00;100881.81;1730404;83;20977;-80
2021/06/16 09:08:19;;;;;;;5.35;3.98;;;;;;;19.35;100.00;100879.22;1709242;84;21078;-75
2021/06/16 09:10:52;;;;;;;4.97;3.47;;;;;;;19.39;100.00;100880.58;1730517;82;21144;-76
2021/06/16 09:13:33;;;;;;;5.30;3.10;;;;;;;19.43;100.00;100879.33;1730225;83;21054;-75
2021/06/16 09:16:02;;;;;;;4.93;4.53;;;;;;;19.51;100.00;100885.95;1709131;84;20972;-75
2021/06/16 09:18:43;;;;;;;5.25;4.30;;;;;;;19.59;100.00;100889.98;1686248;84;21070;-77
2021/06/16 09:21:11;;;;;;;4.08;3.60;;;;;;;19.69;100.00;100889.89;1730537;83;21135;-78
2021/06/16 09:23:40;;;;;;;3.42;3.12;;;;;;;19.71;100.00;100886.59;1709562;84;21124;-79
2021/06/16 09:26:13;;;;;;;4.22;2.98;;;;;;;19.71;100.00;100892.70;1685066;83;21042;-77
2021/06/16 09:28:48;;;;;;;6.47;3.37;;;;;;;19.67;100.00;100893.14;1730961;82;21054;-80
2021/06/16 09:31:16;;;;;;;5.45;3.15;;;;;;;19.69;100.00;100892.52;1731146;82;21011;-81
2021/06/16 09:33:44;;;;;;;4.25;3.25;;;;;;;19.74;100.00;100890.23;1731266;83;21029;-75
2021/06/16 09:36:16;;;;;;;4.15;3.85;;;;;;;19.75;100.00;100887.44;1709583;82;21055;-77
2021/06/16 09:39:18;;;;;;;5.10;3.30;;;;;;;19.78;100.00;100889.79;1716122;83;21128;-77
2021/06/16 09:42:11;;;;;;;3.92;3.30;;;;;;;19.86;100.00;100888.99;1714339;83;21098;-78
2021/06/16 09:44:53;;;;;;;4.30;3.90;;;;;;;19.90;100.00;100891.17;1715014;83;21007;-77
2021/06/16 09:47:22;;;;;;;5.90;3.37;;;;;;;19.84;100.00;100883.90;1716194;83;39064;-77
2021/06/16 09:50:04;;;;;;;3.35;3.05;;;;;;;19.83;100.00;100887.98;1722873;83;21091;-79
2021/06/16 09:52:47;;;;;;;4.45;3.35;;;;;;;19.83;100.00;100886.19;1721175;83;21018;-77
2021/06/16 09:55:29;;;;;;;3.30;3.00;;;;;;;19.82;100.00;100880.58;1716245;83;21058;-76
2021/06/16 09:58:08;;;;;;;5.03;3.30;;;;;;;19.91;100.00;100882.27;1711678;83;21478;-74
2021/06/16 10:00:52;;;;;;;3.90;3.60;;;;;;;19.96;100.00;100881.81;1711350;82;21037;-76
2021/06/16 10:03:23;;;;;;;3.65;3.35;;;;;;;19.93;100.00;100891.34;1710560;83;21144;-75
2021/06/16 10:06:09;;;;;;;5.03;3.15;;;;;;;19.93;100.00;100897.45;1711381;82;21684;-75
2021/06/16 10:08:52;;;;;;;3.70;3.15;;;;;;;19.94;100.00;100887.74;1712031;83;21027;-74
2021/06/16 10:11:23;;;;;;;4.25;3.20;;;;;;;19.93;100.00;100894.81;1711349;83;21609;-75
2021/06/16 10:13:51;;;;;;;3.95;3.55;;;;;;;19.92;100.00;100898.91;1711054;83;21580;-75
2021/06/16 10:16:19;;;;;;;6.58;3.58;;;;;;;19.87;100.00;100904.66;1711744;83;21176;-73
2021/06/16 10:18:49;;;;;;;6.17;4.05;;;;;;;19.75;100.00;100900.60;1711925;82;21082;-73
2021/06/16 10:21:17;;;;;;;9.60;4.17;;;;;;;19.59;100.00;100904.47;1712034;83;21090;-68
2021/06/16 10:23:45;;;;;;;8.40;4.30;;;;;;;19.36;100.00;100906.72;1711367;82;21549;-72
2021/06/16 10:26:29;;;;;;;7.05;3.60;;;;;;;19.19;100.00;100905.39;1711734;83;21007;-72
2021/06/16 10:29:00;;;;;;;6.85;3.40;;;;;;;19.02;100.00;100909.18;1711971;83;21555;-72
2021/06/16 10:31:41;;;;;;;4.42;3.17;;;;;;;18.88;100.00;100907.08;1711588;83;21066;-75
2021/06/16 10:34:09;;;;;;;6.42;3.85;;;;;;;18.75;100.00;100901.34;1711677;82;21110;-72
2021/06/16 10:36:38;;;;;;;6.08;3.65;;;;;;;18.62;100.00;100899.55;1711347;83;21020;-73
2021/06/16 10:39:12;;;;;;;4.20;3.30;;;;;;;18.56;100.00;100888.80;1711074;83;21106;-71
2021/06/16 10:41:54;;;;;;;6.65;3.75;;;;;;;18.57;100.00;100886.01;1711283;83;21776;-75
2021/06/16 10:44:27;;;;;;;3.33;3.12;;;;;;;18.58;100.00;100875.84;1711449;83;21089;-75
2021/06/16 10:47:08;;;;;;;3.98;2.95;;;;;;;18.58;100.00;100876.33;1711818;82;21000;-74
2021/06/16 10:49:54;;;;;;;3.83;3.40;;;;;;;18.55;100.00;100877.94;1712378;82;21581;-75
2021/06/16 10:52:24;;;;;;;5.65;3.65;;;;;;;18.52;100.00;100884.80;1711167;83;21823;-76
2021/06/16 10:55:12;;;;;;;3.92;3.42;;;;;;;18.52;100.00;100888.27;1711836;81;21183;-77
2021/06/16 10:57:39;;;;;;;4.28;3.00;;;;;;;18.53;100.00;100896.50;1713811;83;20948;-72
2021/06/16 11:00:10;;;;;;;3.20;2.58;;;;;;;18.65;100.00;100902.37;1713337;83;21597;-74
2021/06/16 11:02:46;;;;;;;3.25;2.67;;;;;;;18.79;100.00;100898.77;1714325;83;21471;-74
2021/06/16 11:05:31;;;;;;;2.50;2.30;;;;;;;18.86;100.00;100896.34;1714048;83;20962;-75
2021/06/16 11:08:00;;;;;;;4.05;3.62;;;;;;;18.79;100.00;100900.09;1713356;83;21572;-75
2021/06/16 11:10:55;;;;;;;5.70;3.87;;;;;;;18.69;100.00;100901.94;1713001;83;22187;-76
2021/06/16 11:13:41;;;;;;;3.27;2.98;;;;;;;18.57;100.00;100892.58;1714565;83;21000;-75
2021/06/16 11:16:41;;;;;;;5.15;3.50;;;;;;;18.57;100.00;100896.52;1715669;83;20979;-73
2021/06/16 11:19:23;;;;;;;3.47;3.17;;;;;;;18.67;100.00;100895.98;1680263;83;20959;-73
2021/06/16 11:21:53;;;;;;;5.17;3.77;;;;;;;18.74;100.00;100901.00;1713654;83;21102;-74
2021/06/16 11:24:20;;;;;;;3.62;3.33;;;;;;;18.81;100.00;100904.70;1713704;83;21050;-73
2021/06/16 11:26:48;;;;;;;4.00;3.62;;;;;;;18.83;100.00;100904.05;1713868;83;21478;-73